createdAt,value
2018-03-26T00:00:10.315Z,83.00
2018-03-26T00:01:09.295Z,77.00
2018-03-26T00:02:12.087Z,81.00
2018-03-26T00:03:09.307Z,77.00
2018-03-26T00:04:09.215Z,84.00
2018-03-26T00:05:09.323Z,85.00
2018-03-26T00:06:09.339Z,76.00
2018-03-26T00:07:09.341Z,88.00
2018-03-26T00:08:09.360Z,85.00
2018-03-26T00:09:09.309Z,83.00
2018-03-26T00:10:09.370Z,70.00
2018-03-26T00:11:09.376Z,81.00
2018-03-26T00:12:09.377Z,83.00
2018-03-26T00:13:09.279Z,84.00
2018-03-26T00:14:09.292Z,83.00
2018-03-26T00:15:09.300Z,82.00
2018-03-26T00:16:09.297Z,78.00
2018-03-26T00:17:09.331Z,91.00
2018-03-26T00:18:09.309Z,67.00
2018-03-26T00:19:09.331Z,84.00
2018-03-26T00:20:09.339Z,79.00
2018-03-26T00:21:09.329Z,77.00
2018-03-26T00:22:09.354Z,90.00
2018-03-26T00:23:09.362Z,90.00
2018-03-26T00:24:09.353Z,88.00
2018-03-26T00:25:09.377Z,86.00
2018-03-26T00:26:09.385Z,93.00
2018-03-26T00:27:09.289Z,92.00
2018-03-26T00:28:09.281Z,90.00
2018-03-26T00:29:09.289Z,89.00
2018-03-26T00:30:09.426Z,89.00
2018-03-26T00:31:09.308Z,89.00
2018-03-26T00:32:09.330Z,89.00
2018-03-26T00:33:09.326Z,89.00
2018-03-26T00:34:09.365Z,82.00
2018-03-26T00:35:09.337Z,82.00
2018-03-26T00:36:09.343Z,78.00
2018-03-26T00:37:09.358Z,69.00
2018-03-26T00:38:09.352Z,75.00
2018-03-26T00:39:09.365Z,70.00
2018-03-26T00:40:09.369Z,50.00
2018-03-26T00:41:09.389Z,59.00
2018-03-26T00:42:09.286Z,46.00
2018-03-26T00:43:09.398Z,65.00
2018-03-26T00:44:09.306Z,58.00
2018-03-26T00:45:09.319Z,49.00
2018-03-26T00:46:09.321Z,42.00
2018-03-26T00:47:09.359Z,45.00
2018-03-26T00:48:09.324Z,45.00
2018-03-26T00:49:09.338Z,52.00
2018-03-26T00:50:09.334Z,48.00
2018-03-26T00:51:09.354Z,323.00
2018-03-26T00:52:09.383Z,318.00
2018-03-26T00:53:09.366Z,305.00
2018-03-26T00:54:09.378Z,294.00
2018-03-26T00:55:09.390Z,292.00
2018-03-26T00:56:09.380Z,358.00
2018-03-26T00:57:09.285Z,45.00
2018-03-26T00:58:09.193Z,12.00
2018-03-26T00:59:09.198Z,342.00
2018-03-26T01:00:10.335Z,332.00
2018-03-26T01:01:09.314Z,292.00
2018-03-26T01:02:09.221Z,292.00
2018-03-26T01:03:09.233Z,292.00
2018-03-26T01:04:09.239Z,292.00
2018-03-26T01:05:09.353Z,320.00
2018-03-26T01:06:09.350Z,277.00
2018-03-26T01:07:09.370Z,271.00
2018-03-26T01:08:09.369Z,278.00
2018-03-26T01:09:09.370Z,291.00
2018-03-26T01:10:09.404Z,287.00
2018-03-26T01:11:09.388Z,301.00
2018-03-26T01:12:09.306Z,292.00
2018-03-26T01:13:09.302Z,286.00
2018-03-26T01:14:09.310Z,271.00
2018-03-26T01:15:09.321Z,270.00
2018-03-26T01:16:09.325Z,319.00
2018-03-26T01:17:09.329Z,290.00
2018-03-26T01:18:09.350Z,270.00
2018-03-26T01:19:09.344Z,270.00
2018-03-26T01:20:09.349Z,275.00
2018-03-26T01:21:09.370Z,282.00
2018-03-26T01:22:09.369Z,270.00
2018-03-26T01:23:09.374Z,270.00
2018-03-26T01:24:09.282Z,270.00
2018-03-26T01:25:09.287Z,0.00
2018-03-26T01:26:09.297Z,0.00
2018-03-26T01:27:09.299Z,0.00
2018-03-26T01:28:09.371Z,0.00
2018-03-26T01:29:09.312Z,0.00
2018-03-26T01:30:09.326Z,0.00
2018-03-26T01:31:09.239Z,270.00
2018-03-26T01:32:09.343Z,0.00
2018-03-26T01:33:09.237Z,270.00
2018-03-26T01:34:09.356Z,270.00
2018-03-26T01:35:09.353Z,0.00
2018-03-26T01:36:09.374Z,270.00
2018-03-26T01:37:09.378Z,270.00
2018-03-26T01:38:09.377Z,270.00
2018-03-26T01:39:09.389Z,270.00
2018-03-26T01:40:09.402Z,270.00
2018-03-26T01:41:09.259Z,0.00
2018-03-26T01:42:09.425Z,270.00
2018-03-26T01:43:09.338Z,286.00
2018-03-26T01:44:09.335Z,292.00
2018-03-26T01:45:09.330Z,0.00
2018-03-26T01:46:22.428Z,0.00
2018-03-26T01:47:19.313Z,0.00
2018-03-26T01:48:28.711Z,0.00
2018-03-26T01:49:21.293Z,0.00
2018-03-26T01:50:22.365Z,0.00
2018-03-26T01:51:21.629Z,0.00
2018-03-26T01:52:23.716Z,0.00
2018-03-26T01:53:25.097Z,0.00
2018-03-26T01:54:22.269Z,0.00
2018-03-26T01:55:09.407Z,0.00
2018-03-26T01:56:09.417Z,0.00
2018-03-26T01:57:09.318Z,0.00
2018-03-26T01:58:09.326Z,0.00
2018-03-26T01:59:09.330Z,0.00
2018-03-26T02:00:10.578Z,45.00
2018-03-26T02:01:09.350Z,292.00
2018-03-26T02:02:09.353Z,0.00
2018-03-26T02:03:09.377Z,0.00
2018-03-26T02:04:09.373Z,0.00
2018-03-26T02:05:09.378Z,0.00
2018-03-26T02:06:09.388Z,0.00
2018-03-26T02:07:09.396Z,0.00
2018-03-26T02:08:09.406Z,0.00
2018-03-26T02:09:09.517Z,0.00
2018-03-26T02:10:21.795Z,0.00
2018-03-26T02:11:24.871Z,0.00
2018-03-26T02:12:22.714Z,0.00
2018-03-26T02:13:25.988Z,0.00
2018-03-26T02:14:23.021Z,0.00
2018-03-26T02:15:14.131Z,0.00
2018-03-26T02:16:09.365Z,0.00
2018-03-26T02:17:09.353Z,0.00
2018-03-26T02:18:09.371Z,0.00
2018-03-26T02:19:09.372Z,0.00
2018-03-26T02:20:09.381Z,0.00
2018-03-26T02:21:09.389Z,0.00
2018-03-26T02:22:09.746Z,0.00
2018-03-26T02:23:09.402Z,0.00
2018-03-26T02:24:09.405Z,0.00
2018-03-26T02:25:09.420Z,0.00
2018-03-26T02:26:09.419Z,0.00
2018-03-26T02:27:09.333Z,270.00
2018-03-26T02:28:09.234Z,292.00
2018-03-26T02:29:09.346Z,300.00
2018-03-26T02:30:09.360Z,274.00
2018-03-26T02:31:09.264Z,281.00
2018-03-26T02:32:09.370Z,294.00
2018-03-26T02:33:09.278Z,284.00
2018-03-26T02:34:09.271Z,270.00
2018-03-26T02:35:09.292Z,270.00
2018-03-26T02:36:09.298Z,270.00
2018-03-26T02:37:09.302Z,278.00
2018-03-26T02:38:09.408Z,292.00
2018-03-26T02:39:09.430Z,282.00
2018-03-26T02:40:09.422Z,276.00
2018-03-26T02:41:09.430Z,280.00
2018-03-26T02:42:09.446Z,278.00
2018-03-26T02:43:09.100Z,294.00
2018-03-26T02:44:09.355Z,285.00
2018-03-26T02:45:09.361Z,292.00
2018-03-26T02:46:09.371Z,292.00
2018-03-26T02:47:09.372Z,292.00
2018-03-26T02:48:09.279Z,292.00
2018-03-26T02:49:09.505Z,292.00
2018-03-26T02:50:09.394Z,292.00
2018-03-26T02:51:09.405Z,315.00
2018-03-26T02:52:09.409Z,0.00
2018-03-26T02:53:09.414Z,0.00
2018-03-26T02:54:09.430Z,0.00
2018-03-26T02:55:09.434Z,286.00
2018-03-26T02:56:09.444Z,294.00
2018-03-26T02:57:09.449Z,284.00
2018-03-26T02:58:09.377Z,292.00
2018-03-26T02:59:09.358Z,270.00
2018-03-26T03:00:10.492Z,288.00
2018-03-26T03:01:09.391Z,292.00
2018-03-26T03:02:09.290Z,292.00
2018-03-26T03:03:09.390Z,297.00
2018-03-26T03:04:09.402Z,285.00
2018-03-26T03:05:09.405Z,276.00
2018-03-26T03:06:09.412Z,289.00
2018-03-26T03:07:09.421Z,298.00
2018-03-26T03:08:11.650Z,302.00
2018-03-26T03:09:09.424Z,270.00
2018-03-26T03:10:09.442Z,317.00
2018-03-26T03:11:09.450Z,288.00
2018-03-26T03:12:09.448Z,312.00
2018-03-26T03:13:09.355Z,326.00
2018-03-26T03:14:09.361Z,2.00
2018-03-26T03:15:09.374Z,316.00
2018-03-26T03:16:09.373Z,292.00
2018-03-26T03:17:09.384Z,270.00
2018-03-26T03:18:09.389Z,295.00
2018-03-26T03:19:09.412Z,314.00
2018-03-26T03:20:09.435Z,270.00
2018-03-26T03:21:09.304Z,12.00
2018-03-26T03:22:09.418Z,45.00
2018-03-26T03:23:09.328Z,45.00
2018-03-26T03:24:09.453Z,337.00
2018-03-26T03:25:09.447Z,278.00
2018-03-26T03:26:09.353Z,292.00
2018-03-26T03:27:09.451Z,288.00
2018-03-26T03:28:09.366Z,283.00
2018-03-26T03:29:09.365Z,292.00
2018-03-26T03:30:09.382Z,292.00
2018-03-26T03:31:09.379Z,292.00
2018-03-26T03:32:09.440Z,348.00
2018-03-26T03:33:09.398Z,292.00
2018-03-26T03:34:09.406Z,292.00
2018-03-26T03:35:09.408Z,292.00
2018-03-26T03:36:09.426Z,292.00
2018-03-26T03:37:09.429Z,292.00
2018-03-26T03:38:09.440Z,292.00
2018-03-26T03:39:09.446Z,0.00
2018-03-26T03:40:09.449Z,0.00
2018-03-26T03:41:09.454Z,0.00
2018-03-26T03:42:09.382Z,292.00
2018-03-26T03:43:09.380Z,333.00
2018-03-26T03:44:09.380Z,0.00
2018-03-26T03:45:09.382Z,0.00
2018-03-26T03:46:09.398Z,270.00
2018-03-26T03:47:09.394Z,270.00
2018-03-26T03:48:09.402Z,270.00
2018-03-26T03:49:09.418Z,270.00
2018-03-26T03:50:09.418Z,0.00
2018-03-26T03:51:09.422Z,270.00
2018-03-26T03:52:09.429Z,270.00
2018-03-26T03:53:09.433Z,270.00
2018-03-26T03:54:09.458Z,304.00
2018-03-26T03:55:09.459Z,270.00
2018-03-26T03:56:09.466Z,270.00
2018-03-26T03:57:09.466Z,270.00
2018-03-26T03:58:09.374Z,0.00
2018-03-26T03:59:09.391Z,289.00
2018-03-26T04:00:10.560Z,270.00
2018-03-26T04:01:09.398Z,278.00
2018-03-26T04:02:09.410Z,302.00
2018-03-26T04:03:09.410Z,285.00
2018-03-26T04:04:09.419Z,270.00
2018-03-26T04:05:09.435Z,292.00
2018-03-26T04:06:09.430Z,282.00
2018-03-26T04:07:12.319Z,0.00
2018-03-26T04:08:09.458Z,0.00
2018-03-26T04:09:09.462Z,0.00
2018-03-26T04:10:09.462Z,0.00
2018-03-26T04:11:09.478Z,0.00
2018-03-26T04:12:09.479Z,0.00
2018-03-26T04:13:09.382Z,0.00
2018-03-26T04:14:09.385Z,0.00
2018-03-26T04:15:09.403Z,0.00
2018-03-26T04:16:09.316Z,0.00
2018-03-26T04:17:09.413Z,0.00
2018-03-26T04:18:09.427Z,0.00
2018-03-26T04:19:09.425Z,0.00
2018-03-26T04:20:09.457Z,0.00
2018-03-26T04:21:09.444Z,0.00
2018-03-26T04:22:09.462Z,0.00
2018-03-26T04:23:09.453Z,0.00
2018-03-26T04:24:09.467Z,0.00
2018-03-26T04:25:09.480Z,0.00
2018-03-26T04:26:09.491Z,0.00
2018-03-26T04:27:09.490Z,0.00
2018-03-26T04:28:09.394Z,292.00
2018-03-26T04:29:09.393Z,292.00
2018-03-26T04:30:09.406Z,292.00
2018-03-26T04:31:09.418Z,292.00
2018-03-26T04:32:09.413Z,292.00
2018-03-26T04:33:09.429Z,292.00
2018-03-26T04:34:09.432Z,0.00
2018-03-26T04:35:09.436Z,0.00
2018-03-26T04:36:09.487Z,0.00
2018-03-26T04:37:09.444Z,0.00
2018-03-26T04:38:09.454Z,292.00
2018-03-26T04:39:09.470Z,292.00
2018-03-26T04:40:09.475Z,298.00
2018-03-26T04:41:09.475Z,292.00
2018-03-26T04:42:09.504Z,292.00
2018-03-26T04:43:09.389Z,331.00
2018-03-26T04:44:09.397Z,311.00
2018-03-26T04:45:09.410Z,0.00
2018-03-26T04:46:09.312Z,0.00
2018-03-26T04:47:09.323Z,0.00
2018-03-26T04:48:09.434Z,0.00
2018-03-26T04:49:09.434Z,0.00
2018-03-26T04:50:09.445Z,0.00
2018-03-26T04:51:09.449Z,0.00
2018-03-26T04:52:09.466Z,0.00
2018-03-26T04:53:09.474Z,0.00
2018-03-26T04:54:10.820Z,292.00
2018-03-26T04:55:09.490Z,292.00
2018-03-26T04:56:09.489Z,292.00
2018-03-26T04:57:09.504Z,292.00
2018-03-26T04:58:09.406Z,0.00
2018-03-26T04:59:09.306Z,0.00
2018-03-26T05:00:10.546Z,0.00
2018-03-26T05:01:09.428Z,0.00
2018-03-26T05:02:09.435Z,292.00
2018-03-26T05:03:09.438Z,0.00
2018-03-26T05:04:12.507Z,0.00
2018-03-26T05:05:09.444Z,0.00
2018-03-26T05:06:09.473Z,292.00
2018-03-26T05:07:09.463Z,295.00
2018-03-26T05:08:09.470Z,292.00
2018-03-26T05:09:09.386Z,0.00
2018-03-26T05:10:10.611Z,292.00
2018-03-26T05:11:09.500Z,0.00
2018-03-26T05:12:09.509Z,292.00
2018-03-26T05:13:09.502Z,292.00
2018-03-26T05:14:09.933Z,6.00
2018-03-26T05:15:09.422Z,0.00
2018-03-26T05:16:09.443Z,0.00
2018-03-26T05:17:09.337Z,296.00
2018-03-26T05:18:09.965Z,304.00
2018-03-26T05:19:10.101Z,324.00
2018-03-26T05:20:10.196Z,304.00
2018-03-26T05:21:10.250Z,292.00
2018-03-26T05:22:11.096Z,292.00
2018-03-26T05:23:10.105Z,296.00
2018-03-26T05:24:10.163Z,287.00
2018-03-26T05:25:10.369Z,292.00
2018-03-26T05:26:09.332Z,0.00
2018-03-26T05:27:09.562Z,0.00
2018-03-26T05:28:09.423Z,0.00
2018-03-26T05:29:11.630Z,292.00
2018-03-26T05:30:12.743Z,304.00
2018-03-26T05:31:10.304Z,294.00
2018-03-26T05:32:09.661Z,0.00
2018-03-26T05:33:09.502Z,15.00
2018-03-26T05:34:09.457Z,292.00
2018-03-26T05:35:09.469Z,292.00
2018-03-26T05:36:09.474Z,335.00
2018-03-26T05:37:09.474Z,322.00
2018-03-26T05:38:09.501Z,0.00
2018-03-26T05:39:09.486Z,292.00
2018-03-26T05:40:12.402Z,292.00
2018-03-26T05:41:09.517Z,270.00
2018-03-26T05:42:09.512Z,270.00
2018-03-26T05:43:09.414Z,277.00
2018-03-26T05:44:09.426Z,112.00
2018-03-26T05:45:09.358Z,270.00
2018-03-26T05:46:09.442Z,270.00
2018-03-26T05:47:09.447Z,270.00
2018-03-26T05:48:09.463Z,326.00
2018-03-26T05:49:09.207Z,337.00
2018-03-26T05:50:09.469Z,337.00
2018-03-26T05:51:09.479Z,0.00
2018-03-26T05:52:09.483Z,0.00
2018-03-26T05:53:09.490Z,0.00
2018-03-26T05:54:09.503Z,0.00
2018-03-26T05:55:09.508Z,0.00
2018-03-26T05:56:09.515Z,0.00
2018-03-26T05:57:09.531Z,0.00
2018-03-26T05:58:09.530Z,0.00
2018-03-26T05:59:09.421Z,292.00
2018-03-26T06:00:11.635Z,0.00
2018-03-26T06:01:09.453Z,292.00
2018-03-26T06:02:09.513Z,27.00
2018-03-26T06:03:09.466Z,290.00
2018-03-26T06:04:09.474Z,0.00
2018-03-26T06:05:09.484Z,0.00
2018-03-26T06:06:09.489Z,270.00
2018-03-26T06:07:09.498Z,56.00
2018-03-26T06:08:09.498Z,96.00
2018-03-26T06:09:09.512Z,45.00
2018-03-26T06:10:09.521Z,45.00
2018-03-26T06:11:09.519Z,315.00
2018-03-26T06:12:09.537Z,270.00
2018-03-26T06:13:09.533Z,67.00
2018-03-26T06:14:09.437Z,89.00
2018-03-26T06:15:10.691Z,301.00
2018-03-26T06:16:09.452Z,21.00
2018-03-26T06:17:09.491Z,89.00
2018-03-26T06:18:09.461Z,89.00
2018-03-26T06:19:10.450Z,89.00
2018-03-26T06:20:09.221Z,90.00
2018-03-26T06:21:09.490Z,70.00
2018-03-26T06:22:09.495Z,31.00
2018-03-26T06:23:09.533Z,311.00
2018-03-26T06:24:09.518Z,29.00
2018-03-26T06:25:09.537Z,79.00
2018-03-26T06:26:11.744Z,64.00
2018-03-26T06:27:09.432Z,29.00
2018-03-26T06:28:09.542Z,41.00
2018-03-26T06:29:09.451Z,66.00
2018-03-26T06:30:09.454Z,64.00
2018-03-26T06:31:09.453Z,32.00
2018-03-26T06:32:09.461Z,42.00
2018-03-26T06:33:09.531Z,33.00
2018-03-26T06:34:09.494Z,45.00
2018-03-26T06:35:09.498Z,45.00
2018-03-26T06:36:09.398Z,21.00
2018-03-26T06:37:09.410Z,42.00
2018-03-26T06:38:09.405Z,16.00
2018-03-26T06:39:09.414Z,51.00
2018-03-26T06:40:09.465Z,61.00
2018-03-26T06:41:24.905Z,42.00
2018-03-26T06:42:22.055Z,62.00
2018-03-26T06:43:11.598Z,95.00
2018-03-26T06:44:09.392Z,85.00
2018-03-26T06:45:09.369Z,86.00
2018-03-26T06:46:09.297Z,87.00
2018-03-26T06:47:09.401Z,78.00
2018-03-26T06:48:09.397Z,12.00
2018-03-26T06:49:09.418Z,350.00
2018-03-26T06:50:09.394Z,53.00
2018-03-26T06:51:09.343Z,313.00
2018-03-26T06:52:09.514Z,37.00
2018-03-26T06:53:09.522Z,53.00
2018-03-26T06:54:09.520Z,71.00
2018-03-26T06:55:09.543Z,352.00
2018-03-26T06:56:09.539Z,1.00
2018-03-26T06:57:09.581Z,33.00
2018-03-26T06:58:09.558Z,92.00
2018-03-26T06:59:09.462Z,87.00
2018-03-26T07:00:20.849Z,93.00
2018-03-26T07:01:09.469Z,90.00
2018-03-26T07:02:09.483Z,79.00
2018-03-26T07:03:09.483Z,102.00
2018-03-26T07:04:09.488Z,103.00
2018-03-26T07:05:10.114Z,103.00
2018-03-26T07:06:09.499Z,77.00
2018-03-26T07:07:09.514Z,60.00
2018-03-26T07:08:09.522Z,334.00
2018-03-26T07:09:09.529Z,99.00
2018-03-26T07:10:09.540Z,88.00
2018-03-26T07:11:09.545Z,94.00
2018-03-26T07:12:09.546Z,21.00
2018-03-26T07:13:09.582Z,102.00
2018-03-26T07:14:09.449Z,87.00
2018-03-26T07:15:09.566Z,83.00
2018-03-26T07:16:25.039Z,97.00
2018-03-26T07:17:09.960Z,86.00
2018-03-26T07:18:09.488Z,89.00
2018-03-26T07:19:22.548Z,24.00
2018-03-26T07:20:23.223Z,65.00
2018-03-26T07:21:23.194Z,85.00
2018-03-26T07:22:25.393Z,52.00
2018-03-26T07:23:21.175Z,105.00
2018-03-26T07:24:20.676Z,37.00
2018-03-26T07:25:26.599Z,76.00
2018-03-26T07:26:20.365Z,72.00
2018-03-26T07:27:25.406Z,311.00
2018-03-26T07:28:18.910Z,93.00
2018-03-26T07:29:09.460Z,92.00
2018-03-26T07:30:09.483Z,61.00
2018-03-26T07:31:09.497Z,26.00
2018-03-26T07:32:09.483Z,88.00
2018-03-26T07:33:09.501Z,96.00
2018-03-26T07:34:23.110Z,94.00
2018-03-26T07:35:09.504Z,98.00
2018-03-26T07:36:09.634Z,91.00
2018-03-26T07:37:09.530Z,82.00
2018-03-26T07:38:09.538Z,84.00
2018-03-26T07:39:09.545Z,76.00
2018-03-26T07:40:09.563Z,70.00
2018-03-26T07:41:09.607Z,90.00
2018-03-26T07:42:09.567Z,97.00
2018-03-26T07:43:09.595Z,87.00
2018-03-26T07:44:09.577Z,64.00
2018-03-26T07:45:17.090Z,93.00
2018-03-26T07:46:09.494Z,75.00
2018-03-26T07:47:12.578Z,32.00
2018-03-26T07:48:09.509Z,78.00
2018-03-26T07:49:09.520Z,50.00
2018-03-26T07:50:09.546Z,92.00
2018-03-26T07:51:09.338Z,58.00
2018-03-26T07:52:09.547Z,52.00
2018-03-26T07:53:09.182Z,104.00
2018-03-26T07:54:09.554Z,94.00
2018-03-26T07:55:09.578Z,87.00
2018-03-26T07:56:09.656Z,72.00
2018-03-26T07:57:09.564Z,92.00
2018-03-26T07:58:09.586Z,121.00
2018-03-26T07:59:09.588Z,85.00
2018-03-26T08:00:10.619Z,68.00
2018-03-26T08:01:12.413Z,93.00
2018-03-26T08:02:09.514Z,94.00
2018-03-26T08:03:09.523Z,82.00
2018-03-26T08:04:10.544Z,81.00
2018-03-26T08:05:09.526Z,59.00
2018-03-26T08:06:09.545Z,87.00
2018-03-26T08:07:09.351Z,89.00
2018-03-26T08:08:09.548Z,87.00
2018-03-26T08:09:09.571Z,63.00
2018-03-26T08:10:09.567Z,30.00
2018-03-26T08:11:09.565Z,85.00
2018-03-26T08:12:09.595Z,88.00
2018-03-26T08:13:09.589Z,60.00
2018-03-26T08:14:09.636Z,87.00
2018-03-26T08:15:09.494Z,107.00
2018-03-26T08:16:09.607Z,79.00
2018-03-26T08:17:09.567Z,117.00
2018-03-26T08:18:09.430Z,64.00
2018-03-26T08:19:09.525Z,126.00
2018-03-26T08:20:28.662Z,95.00
2018-03-26T08:21:09.538Z,35.00
2018-03-26T08:22:14.963Z,38.00
2018-03-26T08:23:09.553Z,128.00
2018-03-26T08:24:09.316Z,100.00
2018-03-26T08:25:09.574Z,89.00
2018-03-26T08:26:09.170Z,47.00
2018-03-26T08:27:09.582Z,90.00
2018-03-26T08:28:09.496Z,99.00
2018-03-26T08:29:09.593Z,82.00
2018-03-26T08:30:09.614Z,83.00
2018-03-26T08:31:09.511Z,102.00
2018-03-26T08:32:09.525Z,95.00
2018-03-26T08:33:09.519Z,39.00
2018-03-26T08:34:09.442Z,87.00
2018-03-26T08:35:09.554Z,102.00
2018-03-26T08:36:09.543Z,91.00
2018-03-26T08:37:09.554Z,85.00
2018-03-26T08:38:09.566Z,78.00
2018-03-26T08:39:15.788Z,96.00
2018-03-26T08:40:09.573Z,38.00
2018-03-26T08:41:09.586Z,58.00
2018-03-26T08:42:09.628Z,57.00
2018-03-26T08:43:09.593Z,88.00
2018-03-26T08:44:09.607Z,92.00
2018-03-26T08:45:20.604Z,78.00
2018-03-26T08:46:17.536Z,114.00
2018-03-26T08:47:16.148Z,120.00
2018-03-26T08:48:23.903Z,112.00
2018-03-26T08:49:17.935Z,331.00
2018-03-26T08:50:21.197Z,358.00
2018-03-26T08:51:23.923Z,111.00
2018-03-26T08:52:21.381Z,94.00
2018-03-26T08:53:13.353Z,293.00
2018-03-26T08:54:09.577Z,89.00
2018-03-26T08:55:09.419Z,107.00
2018-03-26T08:56:09.603Z,87.00
2018-03-26T08:57:09.601Z,49.00
2018-03-26T08:58:09.610Z,55.00
2018-03-26T08:59:20.506Z,343.00
2018-03-26T09:00:10.641Z,75.00
2018-03-26T09:01:09.538Z,83.00
2018-03-26T09:02:09.526Z,81.00
2018-03-26T09:03:09.547Z,70.00
2018-03-26T09:04:09.554Z,47.00
2018-03-26T09:05:09.548Z,92.00
2018-03-26T09:06:09.557Z,98.00
2018-03-26T09:07:09.578Z,116.00
2018-03-26T09:08:09.573Z,79.00
2018-03-26T09:09:09.577Z,95.00
2018-03-26T09:10:09.600Z,109.00
2018-03-26T09:11:09.600Z,142.00
2018-03-26T09:12:38.816Z,56.00
2018-03-26T09:13:20.552Z,20.00
2018-03-26T09:14:10.671Z,22.00
2018-03-26T09:15:18.052Z,60.00
2018-03-26T09:16:17.877Z,48.00
2018-03-26T09:17:21.633Z,112.00
2018-03-26T09:18:13.676Z,14.00
2018-03-26T09:19:14.110Z,60.00
2018-03-26T09:20:12.557Z,73.00
2018-03-26T09:21:09.561Z,58.00
2018-03-26T09:22:09.575Z,20.00
2018-03-26T09:23:12.246Z,8.00
2018-03-26T09:24:09.609Z,280.00
2018-03-26T09:25:11.521Z,331.00
2018-03-26T09:26:09.448Z,46.00
2018-03-26T09:27:09.607Z,73.00
2018-03-26T09:28:09.615Z,64.00
2018-03-26T09:29:18.172Z,301.00
2018-03-26T09:30:12.726Z,62.00
2018-03-26T09:31:09.534Z,109.00
2018-03-26T09:32:09.548Z,61.00
2018-03-26T09:33:09.553Z,48.00
2018-03-26T09:34:09.563Z,91.00
2018-03-26T09:35:09.566Z,131.00
2018-03-26T09:36:09.622Z,100.00
2018-03-26T09:37:09.587Z,42.00
2018-03-26T09:38:09.593Z,31.00
2018-03-26T09:39:09.610Z,116.00
2018-03-26T09:40:09.603Z,58.00
2018-03-26T09:41:09.516Z,2.00
2018-03-26T09:42:09.627Z,59.00
2018-03-26T09:43:09.627Z,80.00
2018-03-26T09:44:09.638Z,321.00
2018-03-26T09:45:13.501Z,346.00
2018-03-26T09:46:10.727Z,121.00
2018-03-26T09:47:17.475Z,104.00
2018-03-26T09:48:09.559Z,79.00
2018-03-26T09:49:09.511Z,120.00
2018-03-26T09:50:09.488Z,348.00
2018-03-26T09:51:09.383Z,48.00
2018-03-26T09:52:09.590Z,125.00
2018-03-26T09:53:09.639Z,324.00
2018-03-26T09:54:09.597Z,322.00
2018-03-26T09:55:09.614Z,286.00
2018-03-26T09:56:09.609Z,316.00
2018-03-26T09:57:09.464Z,314.00
2018-03-26T09:58:09.634Z,277.00
2018-03-26T09:59:09.554Z,115.00
2018-03-26T10:00:23.457Z,326.00
2018-03-26T10:01:19.255Z,330.00
2018-03-26T10:02:09.586Z,326.00
2018-03-26T10:03:12.686Z,313.00
2018-03-26T10:04:09.470Z,342.00
2018-03-26T10:05:09.579Z,336.00
2018-03-26T10:06:09.632Z,332.00
2018-03-26T10:07:09.497Z,337.00
2018-03-26T10:08:09.596Z,324.00
2018-03-26T10:09:09.600Z,333.00
2018-03-26T10:10:09.614Z,315.00
2018-03-26T10:11:09.631Z,232.00
2018-03-26T10:12:09.630Z,287.00
2018-03-26T10:13:09.738Z,300.00
2018-03-26T10:14:09.701Z,346.00
2018-03-26T10:15:09.650Z,355.00
2018-03-26T10:16:09.654Z,346.00
2018-03-26T10:17:09.566Z,334.00
2018-03-26T10:18:09.574Z,331.00
2018-03-26T10:19:09.569Z,335.00
2018-03-26T10:20:09.593Z,335.00
2018-03-26T10:21:09.549Z,110.00
2018-03-26T10:22:09.606Z,31.00
2018-03-26T10:23:09.505Z,303.00
2018-03-26T10:24:09.608Z,346.00
2018-03-26T10:25:09.623Z,337.00
2018-03-26T10:26:09.626Z,176.00
2018-03-26T10:27:09.692Z,174.00
2018-03-26T10:28:09.510Z,148.00
2018-03-26T10:29:09.698Z,99.00
2018-03-26T10:30:09.657Z,132.00
2018-03-26T10:31:09.675Z,178.00
2018-03-26T10:32:14.062Z,180.00
2018-03-26T10:33:10.182Z,180.00
2018-03-26T10:34:12.021Z,340.00
2018-03-26T10:35:11.498Z,298.00
2018-03-26T10:36:10.902Z,147.00
2018-03-26T10:37:13.675Z,136.00
2018-03-26T10:38:12.142Z,118.00
2018-03-26T10:39:10.464Z,90.00
2018-03-26T10:40:12.050Z,78.00
2018-03-26T10:41:12.294Z,113.00
2018-03-26T10:42:14.362Z,118.00
2018-03-26T10:43:09.561Z,40.00
2018-03-26T10:44:09.661Z,141.00
2018-03-26T10:45:09.666Z,161.00
2018-03-26T10:46:09.684Z,165.00
2018-03-26T10:47:09.749Z,177.00
2018-03-26T10:48:09.589Z,153.00
2018-03-26T10:49:09.495Z,202.00
2018-03-26T10:50:09.299Z,130.00
2018-03-26T10:51:09.642Z,114.00
2018-03-26T10:52:09.610Z,99.00
2018-03-26T10:53:09.670Z,100.00
2018-03-26T10:54:09.640Z,136.00
2018-03-26T10:55:09.643Z,246.00
2018-03-26T10:56:09.642Z,312.00
2018-03-26T10:57:09.662Z,114.00
2018-03-26T10:58:09.669Z,168.00
2018-03-26T10:59:09.518Z,207.00
2018-03-26T11:00:10.735Z,152.00
2018-03-26T11:01:09.790Z,174.00
2018-03-26T11:02:09.697Z,115.00
2018-03-26T11:03:09.615Z,13.00
2018-03-26T11:04:09.613Z,13.00
2018-03-26T11:05:09.607Z,118.00
2018-03-26T11:06:09.614Z,129.00
2018-03-26T11:07:09.626Z,174.00
2018-03-26T11:08:09.626Z,223.00
2018-03-26T11:09:12.550Z,340.00
2018-03-26T11:10:09.650Z,154.00
2018-03-26T11:11:09.711Z,160.00
2018-03-26T11:12:09.657Z,181.00
2018-03-26T11:13:09.667Z,182.00
2018-03-26T11:14:09.671Z,336.00
2018-03-26T11:15:09.687Z,350.00
2018-03-26T11:16:09.680Z,358.00
2018-03-26T11:17:09.690Z,9.00
2018-03-26T11:18:09.622Z,354.00
2018-03-26T11:19:09.623Z,331.00
2018-03-26T11:20:12.333Z,339.00
2018-03-26T11:21:09.630Z,352.00
2018-03-26T11:22:09.639Z,0.00
2018-03-26T11:23:09.640Z,330.00
2018-03-26T11:24:09.640Z,341.00
2018-03-26T11:25:09.655Z,342.00
2018-03-26T11:26:09.657Z,352.00
2018-03-26T11:27:09.661Z,209.00
2018-03-26T11:28:09.682Z,146.00
2018-03-26T11:29:12.447Z,166.00
2018-03-26T11:30:09.614Z,174.00
2018-03-26T11:31:12.566Z,333.00
2018-03-26T11:32:09.694Z,289.00
2018-03-26T11:33:09.518Z,328.00
2018-03-26T11:34:09.638Z,356.00
2018-03-26T11:35:09.645Z,345.00
2018-03-26T11:36:09.548Z,355.00
2018-03-26T11:37:09.605Z,344.00
2018-03-26T11:38:09.541Z,308.00
2018-03-26T11:39:09.553Z,208.00
2018-03-26T11:40:09.653Z,335.00
2018-03-26T11:41:09.465Z,350.00
2018-03-26T11:42:09.578Z,349.00
2018-03-26T11:43:09.592Z,6.00
2018-03-26T11:44:09.684Z,64.00
2018-03-26T11:45:09.698Z,21.00
2018-03-26T11:46:09.746Z,333.00
2018-03-26T11:47:09.621Z,349.00
2018-03-26T11:48:09.626Z,354.00
2018-03-26T11:49:09.534Z,332.00
2018-03-26T11:50:09.543Z,112.00
2018-03-26T11:51:09.552Z,343.00
2018-03-26T11:52:09.558Z,4.00
2018-03-26T11:53:09.558Z,12.00
2018-03-26T11:54:09.661Z,350.00
2018-03-26T11:55:09.670Z,341.00
2018-03-26T11:56:09.670Z,349.00
2018-03-26T11:57:09.691Z,352.00
2018-03-26T11:58:09.698Z,353.00
2018-03-26T11:59:09.703Z,355.00
2018-03-26T12:00:11.135Z,336.00
2018-03-26T12:01:09.702Z,338.00
2018-03-26T12:02:09.536Z,346.00
2018-03-26T12:03:09.536Z,352.00
2018-03-26T12:04:09.734Z,343.00
2018-03-26T12:05:09.651Z,105.00
2018-03-26T12:06:09.665Z,336.00
2018-03-26T12:07:09.566Z,350.00
2018-03-26T12:08:09.573Z,341.00
2018-03-26T12:09:09.457Z,327.00
2018-03-26T12:10:09.571Z,165.00
2018-03-26T12:11:09.689Z,179.00
2018-03-26T12:12:09.686Z,339.00
2018-03-26T12:13:09.698Z,320.00
2018-03-26T12:14:09.697Z,333.00
2018-03-26T12:15:09.727Z,348.00
2018-03-26T12:16:09.748Z,348.00
2018-03-26T12:17:09.727Z,65.00
2018-03-26T12:18:09.729Z,293.00
2018-03-26T12:19:09.733Z,346.00
2018-03-26T12:20:09.680Z,313.00
2018-03-26T12:21:09.683Z,286.00
2018-03-26T12:22:09.595Z,323.00
2018-03-26T12:23:09.666Z,352.00
2018-03-26T12:24:09.707Z,357.00
2018-03-26T12:25:09.683Z,347.00
2018-03-26T12:26:09.697Z,338.00
2018-03-26T12:27:09.698Z,315.00
2018-03-26T12:28:09.710Z,347.00
2018-03-26T12:29:09.718Z,313.00
2018-03-26T12:30:09.713Z,304.00
2018-03-26T12:31:09.713Z,340.00
2018-03-26T12:32:09.473Z,345.00
2018-03-26T12:33:09.747Z,315.00
2018-03-26T12:34:09.746Z,333.00
2018-03-26T12:35:09.665Z,339.00
2018-03-26T12:36:09.669Z,341.00
2018-03-26T12:37:09.674Z,37.00
2018-03-26T12:38:09.675Z,117.00
2018-03-26T12:39:09.688Z,152.00
2018-03-26T12:40:09.590Z,161.00
2018-03-26T12:41:09.591Z,320.00
2018-03-26T12:42:09.492Z,300.00
2018-03-26T12:43:09.710Z,337.00
2018-03-26T12:44:09.510Z,33.00